sensor_id;sensor_type;location;lat;lon;timestamp;P1;durP1;ratioP1;P2;durP2;ratioP2
2544;SDS011;36212;48.838;9.142;2022-07-05T00:01:58;2.97;;;2.80;;
2544;SDS011;36212;48.838;9.142;2022-07-05T00:04:30;3.50;;;3.27;;
2544;SDS011;36212;48.838;9.142;2022-07-05T00:07:02;3.10;;;2.90;;
2544;SDS011;36212;48.838;9.142;2022-07-05T00:09:51;3.40;;;3.10;;
2544;SDS011;36212;48.838;9.142;2022-07-05T00:12:27;3.80;;;3.40;;
2544;SDS011;36212;48.838;9.142;2022-07-05T00:15:03;3.50;;;3.30;;
2544;SDS011;36212;48.838;9.142;2022-07-05T00:17:36;3.33;;;3.13;;
2544;SDS011;36212;48.838;9.142;2022-07-05T00:20:08;2.90;;;2.80;;
2544;SDS011;36212;48.838;9.142;2022-07-05T00:22:41;3.63;;;3.43;;
2544;SDS011;36212;48.838;9.142;2022-07-05T00:25:14;3.43;;;3.20;;
2544;SDS011;36212;48.838;9.142;2022-07-05T00:27:46;4.50;;;3.97;;
2544;SDS011;36212;48.838;9.142;2022-07-05T00:30:18;3.77;;;3.57;;
2544;SDS011;36212;48.838;9.142;2022-07-05T00:32:51;2.93;;;2.80;;
2544;SDS011;36212;48.838;9.142;2022-07-05T00:35:23;3.93;;;3.53;;
2544;SDS011;36212;48.838;9.142;2022-07-05T00:37:55;3.60;;;3.40;;
2544;SDS011;36212;48.838;9.142;2022-07-05T00:40:27;3.37;;;3.17;;
2544;SDS011;36212;48.838;9.142;2022-07-05T00:42:59;4.27;;;3.40;;
2544;SDS011;36212;48.838;9.142;2022-07-05T00:45:32;3.60;;;3.40;;
2544;SDS011;36212;48.838;9.142;2022-07-05T00:48:04;3.70;;;3.50;;
2544;SDS011;36212;48.838;9.142;2022-07-05T00:50:36;3.27;;;3.17;;
2544;SDS011;36212;48.838;9.142;2022-07-05T00:53:15;3.83;;;3.10;;
2544;SDS011;36212;48.838;9.142;2022-07-05T00:55:47;3.43;;;3.23;;
2544;SDS011;36212;48.838;9.142;2022-07-05T00:58:20;3.50;;;3.30;;
2544;SDS011;36212;48.838;9.142;2022-07-05T01:00:52;3.57;;;3.37;;
2544;SDS011;36212;48.838;9.142;2022-07-05T01:03:24;3.57;;;3.30;;
2544;SDS011;36212;48.838;9.142;2022-07-05T01:06:03;4.13;;;3.87;;
2544;SDS011;36212;48.838;9.142;2022-07-05T01:08:40;4.10;;;3.90;;
2544;SDS011;36212;48.838;9.142;2022-07-05T01:11:17;3.33;;;3.23;;
2544;SDS011;36212;48.838;9.142;2022-07-05T01:13:49;3.73;;;3.53;;
2544;SDS011;36212;48.838;9.142;2022-07-05T01:16:21;3.80;;;3.50;;
2544;SDS011;36212;48.838;9.142;2022-07-05T01:18:54;3.80;;;3.50;;
2544;SDS011;36212;48.838;9.142;2022-07-05T01:21:26;3.87;;;3.67;;
2544;SDS011;36212;48.838;9.142;2022-07-05T01:24:00;4.13;;;3.70;;
2544;SDS011;36212;48.838;9.142;2022-07-05T01:26:32;4.10;;;3.90;;
2544;SDS011;36212;48.838;9.142;2022-07-05T01:29:06;4.37;;;3.97;;
2544;SDS011;36212;48.838;9.142;2022-07-05T01:31:39;3.40;;;3.20;;
2544;SDS011;36212;48.838;9.142;2022-07-05T01:34:14;4.00;;;3.80;;
2544;SDS011;36212;48.838;9.142;2022-07-05T01:36:46;3.93;;;3.57;;
2544;SDS011;36212;48.838;9.142;2022-07-05T01:39:19;3.57;;;3.37;;
2544;SDS011;36212;48.838;9.142;2022-07-05T01:41:51;3.92;;;3.60;;
2544;SDS011;36212;48.838;9.142;2022-07-05T01:44:24;3.47;;;3.27;;
2544;SDS011;36212;48.838;9.142;2022-07-05T01:51:03;5.60;;;4.10;;
2544;SDS011;36212;48.838;9.142;2022-07-05T01:53:45;3.90;;;3.70;;
2544;SDS011;36212;48.838;9.142;2022-07-05T01:56:22;3.80;;;3.50;;
2544;SDS011;36212;48.838;9.142;2022-07-05T01:58:54;3.53;;;3.28;;
2544;SDS011;36212;48.838;9.142;2022-07-05T02:01:32;4.00;;;3.50;;
2544;SDS011;36212;48.838;9.142;2022-07-05T02:04:09;4.30;;;3.50;;
2544;SDS011;36212;48.838;9.142;2022-07-05T02:06:42;4.17;;;3.97;;
2544;SDS011;36212;48.838;9.142;2022-07-05T02:09:16;3.13;;;3.03;;
2544;SDS011;36212;48.838;9.142;2022-07-05T02:11:48;3.30;;;3.20;;
2544;SDS011;36212;48.838;9.142;2022-07-05T02:14:21;4.60;;;3.53;;
2544;SDS011;36212;48.838;9.142;2022-07-05T02:16:53;3.70;;;3.50;;
2544;SDS011;36212;48.838;9.142;2022-07-05T02:19:25;3.60;;;3.40;;
2544;SDS011;36212;48.838;9.142;2022-07-05T02:21:58;3.80;;;3.60;;
2544;SDS011;36212;48.838;9.142;2022-07-05T02:24:30;4.22;;;3.92;;
2544;SDS011;36212;48.838;9.142;2022-07-05T02:27:03;3.58;;;3.38;;
2544;SDS011;36212;48.838;9.142;2022-07-05T02:29:35;4.13;;;3.85;;
2544;SDS011;36212;48.838;9.142;2022-07-05T02:32:07;4.50;;;3.42;;
2544;SDS011;36212;48.838;9.142;2022-07-05T02:34:40;3.15;;;2.95;;
2544;SDS011;36212;48.838;9.142;2022-07-05T02:37:12;3.70;;;3.50;;
2544;SDS011;36212;48.838;9.142;2022-07-05T02:39:44;3.53;;;3.33;;
2544;SDS011;36212;48.838;9.142;2022-07-05T02:42:16;3.40;;;3.25;;
2544;SDS011;36212;48.838;9.142;2022-07-05T02:44:49;4.10;;;3.80;;
2544;SDS011;36212;48.838;9.142;2022-07-05T02:47:21;3.63;;;3.42;;
2544;SDS011;36212;48.838;9.142;2022-07-05T02:49:53;3.05;;;2.85;;
2544;SDS011;36212;48.838;9.142;2022-07-05T02:52:28;3.50;;;3.30;;
2544;SDS011;36212;48.838;9.142;2022-07-05T02:55:00;3.30;;;3.10;;
2544;SDS011;36212;48.838;9.142;2022-07-05T02:57:38;3.00;;;2.80;;
2544;SDS011;36212;48.838;9.142;2022-07-05T03:00:10;3.25;;;3.05;;
2544;SDS011;36212;48.838;9.142;2022-07-05T03:02:43;3.33;;;3.22;;
2544;SDS011;36212;48.838;9.142;2022-07-05T03:05:15;3.40;;;3.10;;
2544;SDS011;36212;48.838;9.142;2022-07-05T03:07:47;7.57;;;3.45;;
2544;SDS011;36212;48.838;9.142;2022-07-05T03:10:19;3.50;;;3.30;;
2544;SDS011;36212;48.838;9.142;2022-07-05T03:12:51;3.85;;;3.65;;
2544;SDS011;36212;48.838;9.142;2022-07-05T03:15:23;3.35;;;3.20;;
2544;SDS011;36212;48.838;9.142;2022-07-05T03:17:55;3.25;;;3.05;;
2544;SDS011;36212;48.838;9.142;2022-07-05T03:20:27;4.00;;;3.33;;
2544;SDS011;36212;48.838;9.142;2022-07-05T03:22:59;3.50;;;3.30;;
2544;SDS011;36212;48.838;9.142;2022-07-05T03:25:32;3.53;;;3.33;;
2544;SDS011;36212;48.838;9.142;2022-07-05T03:32:15;3.28;;;3.15;;
2544;SDS011;36212;48.838;9.142;2022-07-05T03:34:47;4.18;;;3.60;;
2544;SDS011;36212;48.838;9.142;2022-07-05T03:37:20;3.60;;;3.40;;
2544;SDS011;36212;48.838;9.142;2022-07-05T03:39:52;3.38;;;3.22;;
2544;SDS011;36212;48.838;9.142;2022-07-05T03:42:24;3.10;;;3.00;;
2544;SDS011;36212;48.838;9.142;2022-07-05T03:44:56;3.15;;;3.05;;
2544;SDS011;36212;48.838;9.142;2022-07-05T03:47:28;3.47;;;3.20;;
2544;SDS011;36212;48.838;9.142;2022-07-05T03:50:00;3.63;;;3.42;;
2544;SDS011;36212;48.838;9.142;2022-07-05T03:52:33;4.15;;;3.30;;
2544;SDS011;36212;48.838;9.142;2022-07-05T03:55:06;3.53;;;3.33;;
2544;SDS011;36212;48.838;9.142;2022-07-05T03:57:38;3.60;;;3.30;;
2544;SDS011;36212;48.838;9.142;2022-07-05T04:00:10;5.22;;;3.45;;
2544;SDS011;36212;48.838;9.142;2022-07-05T04:02:44;4.57;;;3.45;;
2544;SDS011;36212;48.838;9.142;2022-07-05T04:05:16;4.18;;;3.00;;
2544;SDS011;36212;48.838;9.142;2022-07-05T04:07:49;3.28;;;3.00;;
2544;SDS011;36212;48.838;9.142;2022-07-05T04:10:24;3.47;;;3.28;;
2544;SDS011;36212;48.838;9.142;2022-07-05T04:12:56;3.60;;;3.30;;
2544;SDS011;36212;48.838;9.142;2022-07-05T04:15:28;3.95;;;3.65;;
2544;SDS011;36212;48.838;9.142;2022-07-05T04:18:00;4.10;;;3.80;;
2544;SDS011;36212;48.838;9.142;2022-07-05T04:20:33;3.72;;;3.53;;
2544;SDS011;36212;48.838;9.142;2022-07-05T04:23:05;6.22;;;4.20;;
2544;SDS011;36212;48.838;9.142;2022-07-05T04:25:37;3.60;;;3.35;;
2544;SDS011;36212;48.838;9.142;2022-07-05T04:28:09;3.55;;;3.35;;
2544;SDS011;36212;48.838;9.142;2022-07-05T04:30:41;3.88;;;3.67;;
2544;SDS011;36212;48.838;9.142;2022-07-05T04:33:13;3.25;;;3.05;;
2544;SDS011;36212;48.838;9.142;2022-07-05T04:35:45;4.03;;;3.30;;
2544;SDS011;36212;48.838;9.142;2022-07-05T04:38:18;3.45;;;3.10;;
2544;SDS011;36212;48.838;9.142;2022-07-05T04:40:50;3.13;;;2.92;;
2544;SDS011;36212;48.838;9.142;2022-07-05T04:43:22;2.97;;;2.88;;
2544;SDS011;36212;48.838;9.142;2022-07-05T04:45:54;3.83;;;3.45;;
2544;SDS011;36212;48.838;9.142;2022-07-05T04:48:27;2.70;;;2.60;;
2544;SDS011;36212;48.838;9.142;2022-07-05T04:50:59;3.17;;;2.80;;
2544;SDS011;36212;48.838;9.142;2022-07-05T04:53:31;2.87;;;2.67;;
2544;SDS011;36212;48.838;9.142;2022-07-05T04:56:17;3.10;;;3.00;;
2544;SDS011;36212;48.838;9.142;2022-07-05T04:58:50;3.30;;;3.10;;
2544;SDS011;36212;48.838;9.142;2022-07-05T05:01:22;3.83;;;3.53;;
2544;SDS011;36212;48.838;9.142;2022-07-05T05:03:54;3.28;;;3.08;;
2544;SDS011;36212;48.838;9.142;2022-07-05T05:06:26;3.40;;;3.17;;
2544;SDS011;36212;48.838;9.142;2022-07-05T05:08:59;3.83;;;2.70;;
2544;SDS011;36212;48.838;9.142;2022-07-05T05:11:31;5.72;;;2.70;;
2544;SDS011;36212;48.838;9.142;2022-07-05T05:14:03;2.70;;;2.60;;
2544;SDS011;36212;48.838;9.142;2022-07-05T05:16:35;2.47;;;2.38;;
2544;SDS011;36212;48.838;9.142;2022-07-05T05:19:07;2.73;;;2.53;;
2544;SDS011;36212;48.838;9.142;2022-07-05T05:21:39;2.58;;;2.38;;
2544;SDS011;36212;48.838;9.142;2022-07-05T05:24:11;3.07;;;2.47;;
2544;SDS011;36212;48.838;9.142;2022-07-05T05:26:44;3.90;;;2.50;;
2544;SDS011;36212;48.838;9.142;2022-07-05T05:29:16;2.40;;;2.20;;
2544;SDS011;36212;48.838;9.142;2022-07-05T05:36:01;2.53;;;2.43;;
2544;SDS011;36212;48.838;9.142;2022-07-05T05:38:34;3.43;;;2.50;;
2544;SDS011;36212;48.838;9.142;2022-07-05T05:41:07;2.53;;;2.40;;
2544;SDS011;36212;48.838;9.142;2022-07-05T05:43:39;2.80;;;2.60;;
2544;SDS011;36212;48.838;9.142;2022-07-05T05:46:11;2.90;;;2.70;;
2544;SDS011;36212;48.838;9.142;2022-07-05T05:52:55;2.50;;;2.20;;
2544;SDS011;36212;48.838;9.142;2022-07-05T05:55:29;2.60;;;2.40;;
2544;SDS011;36212;48.838;9.142;2022-07-05T06:00:48;1.80;;;1.70;;
2544;SDS011;36212;48.838;9.142;2022-07-05T06:03:24;4.33;;;1.97;;
2544;SDS011;36212;48.838;9.142;2022-07-05T06:05:58;2.07;;;1.97;;
2544;SDS011;36212;48.838;9.142;2022-07-05T06:08:30;2.10;;;1.90;;
2544;SDS011;36212;48.838;9.142;2022-07-05T06:11:02;2.23;;;1.63;;
2544;SDS011;36212;48.838;9.142;2022-07-05T06:13:36;1.77;;;1.67;;
2544;SDS011;36212;48.838;9.142;2022-07-05T06:16:08;1.60;;;1.50;;
2544;SDS011;36212;48.838;9.142;2022-07-05T06:18:41;1.70;;;1.60;;
2544;SDS011;36212;48.838;9.142;2022-07-05T06:21:13;1.83;;;1.63;;
2544;SDS011;36212;48.838;9.142;2022-07-05T06:27:57;2.17;;;1.50;;
2544;SDS011;36212;48.838;9.142;2022-07-05T06:30:37;1.90;;;1.80;;
2544;SDS011;36212;48.838;9.142;2022-07-05T06:33:10;4.80;;;1.37;;
2544;SDS011;36212;48.838;9.142;2022-07-05T06:35:43;1.70;;;1.60;;
2544;SDS011;36212;48.838;9.142;2022-07-05T06:42:26;2.00;;;1.63;;
2544;SDS011;36212;48.838;9.142;2022-07-05T06:44:58;1.40;;;1.30;;
2544;SDS011;36212;48.838;9.142;2022-07-05T06:47:30;1.90;;;1.63;;
2544;SDS011;36212;48.838;9.142;2022-07-05T06:54:08;2.60;;;1.70;;
2544;SDS011;36212;48.838;9.142;2022-07-05T06:57:01;1.50;;;1.40;;
2544;SDS011;36212;48.838;9.142;2022-07-05T06:59:53;1.70;;;1.60;;
2544;SDS011;36212;48.838;9.142;2022-07-05T07:02:28;1.87;;;1.50;;
2544;SDS011;36212;48.838;9.142;2022-07-05T07:05:01;1.33;;;1.23;;
2544;SDS011;36212;48.838;9.142;2022-07-05T07:07:44;1.50;;;1.40;;
2544;SDS011;36212;48.838;9.142;2022-07-05T07:10:54;1.40;;;1.30;;
2544;SDS011;36212;48.838;9.142;2022-07-05T07:13:26;1.87;;;1.40;;
2544;SDS011;36212;48.838;9.142;2022-07-05T07:15:58;2.30;;;1.20;;
2544;SDS011;36212;48.838;9.142;2022-07-05T07:18:30;1.10;;;1.00;;
2544;SDS011;36212;48.838;9.142;2022-07-05T07:25:24;1.50;;;1.27;;
2544;SDS011;36212;48.838;9.142;2022-07-05T07:27:57;2.10;;;1.30;;
2544;SDS011;36212;48.838;9.142;2022-07-05T07:30:29;1.20;;;1.10;;
2544;SDS011;36212;48.838;9.142;2022-07-05T07:33:02;2.40;;;1.20;;
2544;SDS011;36212;48.838;9.142;2022-07-05T07:35:36;1.27;;;1.17;;
2544;SDS011;36212;48.838;9.142;2022-07-05T07:38:08;3.67;;;1.40;;
2544;SDS011;36212;48.838;9.142;2022-07-05T07:40:41;1.60;;;1.50;;
2544;SDS011;36212;48.838;9.142;2022-07-05T07:43:13;1.77;;;1.40;;
2544;SDS011;36212;48.838;9.142;2022-07-05T07:45:47;6.53;;;2.00;;
2544;SDS011;36212;48.838;9.142;2022-07-05T07:48:20;5.67;;;1.90;;
2544;SDS011;36212;48.838;9.142;2022-07-05T07:50:52;4.30;;;1.67;;
2544;SDS011;36212;48.838;9.142;2022-07-05T07:53:24;1.50;;;1.40;;
2544;SDS011;36212;48.838;9.142;2022-07-05T07:55:57;2.47;;;1.73;;
2544;SDS011;36212;48.838;9.142;2022-07-05T08:02:33;1.63;;;1.53;;
2544;SDS011;36212;48.838;9.142;2022-07-05T08:05:06;2.10;;;1.53;;
2544;SDS011;36212;48.838;9.142;2022-07-05T08:07:40;2.23;;;1.60;;
2544;SDS011;36212;48.838;9.142;2022-07-05T08:10:56;2.33;;;1.63;;
2544;SDS011;36212;48.838;9.142;2022-07-05T08:13:30;5.53;;;1.63;;
2544;SDS011;36212;48.838;9.142;2022-07-05T08:16:03;3.27;;;1.60;;
2544;SDS011;36212;48.838;9.142;2022-07-05T08:18:35;1.53;;;1.43;;
2544;SDS011;36212;48.838;9.142;2022-07-05T08:21:46;1.57;;;1.40;;
2544;SDS011;36212;48.838;9.142;2022-07-05T08:24:19;4.97;;;1.57;;
2544;SDS011;36212;48.838;9.142;2022-07-05T08:26:51;1.67;;;1.40;;
2544;SDS011;36212;48.838;9.142;2022-07-05T08:29:23;1.40;;;1.30;;
2544;SDS011;36212;48.838;9.142;2022-07-05T08:31:55;2.33;;;1.40;;
2544;SDS011;36212;48.838;9.142;2022-07-05T08:34:28;1.30;;;1.20;;
2544;SDS011;36212;48.838;9.142;2022-07-05T08:37:00;2.40;;;1.40;;
2544;SDS011;36212;48.838;9.142;2022-07-05T08:39:33;1.87;;;1.43;;
2544;SDS011;36212;48.838;9.142;2022-07-05T08:42:07;2.47;;;1.50;;
2544;SDS011;36212;48.838;9.142;2022-07-05T08:44:42;1.40;;;1.30;;
2544;SDS011;36212;48.838;9.142;2022-07-05T08:47:19;1.80;;;1.33;;
2544;SDS011;36212;48.838;9.142;2022-07-05T08:49:52;1.77;;;1.53;;
2544;SDS011;36212;48.838;9.142;2022-07-05T08:52:27;1.93;;;1.27;;
2544;SDS011;36212;48.838;9.142;2022-07-05T08:55:02;4.80;;;1.63;;
2544;SDS011;36212;48.838;9.142;2022-07-05T09:01:40;2.80;;;1.60;;
2544;SDS011;36212;48.838;9.142;2022-07-05T09:04:18;2.27;;;1.57;;
2544;SDS011;36212;48.838;9.142;2022-07-05T09:06:52;5.30;;;1.73;;
2544;SDS011;36212;48.838;9.142;2022-07-05T09:13:58;2.60;;;1.70;;
2544;SDS011;36212;48.838;9.142;2022-07-05T09:16:59;4.73;;;2.07;;
2544;SDS011;36212;48.838;9.142;2022-07-05T09:19:31;3.63;;;1.87;;
2544;SDS011;36212;48.838;9.142;2022-07-05T09:22:06;1.83;;;1.63;;
2544;SDS011;36212;48.838;9.142;2022-07-05T09:24:43;2.77;;;1.53;;
2544;SDS011;36212;48.838;9.142;2022-07-05T09:27:17;2.27;;;1.60;;
2544;SDS011;36212;48.838;9.142;2022-07-05T09:29:54;3.93;;;1.57;;
2544;SDS011;36212;48.838;9.142;2022-07-05T09:32:33;3.00;;;1.87;;
2544;SDS011;36212;48.838;9.142;2022-07-05T09:35:20;3.10;;;1.63;;
2544;SDS011;36212;48.838;9.142;2022-07-05T09:37:52;3.87;;;1.73;;
2544;SDS011;36212;48.838;9.142;2022-07-05T09:40:25;2.57;;;1.90;;
2544;SDS011;36212;48.838;9.142;2022-07-05T09:43:16;2.40;;;2.13;;
2544;SDS011;36212;48.838;9.142;2022-07-05T09:48:34;1.87;;;1.50;;
2544;SDS011;36212;48.838;9.142;2022-07-05T09:51:21;2.47;;;2.27;;
2544;SDS011;36212;48.838;9.142;2022-07-05T09:54:17;1.67;;;1.50;;
2544;SDS011;36212;48.838;9.142;2022-07-05T09:56:49;2.83;;;1.33;;
2544;SDS011;36212;48.838;9.142;2022-07-05T09:59:21;1.90;;;1.50;;
2544;SDS011;36212;48.838;9.142;2022-07-05T10:01:54;3.70;;;3.50;;
2544;SDS011;36212;48.838;9.142;2022-07-05T10:04:26;5.00;;;2.10;;
2544;SDS011;36212;48.838;9.142;2022-07-05T10:06:58;3.77;;;1.60;;
2544;SDS011;36212;48.838;9.142;2022-07-05T10:09:30;2.83;;;1.70;;
2544;SDS011;36212;48.838;9.142;2022-07-05T10:12:04;1.40;;;1.30;;
2544;SDS011;36212;48.838;9.142;2022-07-05T10:14:36;1.40;;;1.30;;
2544;SDS011;36212;48.838;9.142;2022-07-05T10:17:09;1.60;;;1.50;;
2544;SDS011;36212;48.838;9.142;2022-07-05T10:19:43;1.90;;;1.80;;
2544;SDS011;36212;48.838;9.142;2022-07-05T10:22:21;3.17;;;1.60;;
2544;SDS011;36212;48.838;9.142;2022-07-05T10:24:56;2.60;;;1.43;;
2544;SDS011;36212;48.838;9.142;2022-07-05T10:27:33;2.20;;;1.33;;
2544;SDS011;36212;48.838;9.142;2022-07-05T10:30:07;2.20;;;1.30;;
2544;SDS011;36212;48.838;9.142;2022-07-05T10:36:42;2.20;;;1.20;;
2544;SDS011;36212;48.838;9.142;2022-07-05T10:39:14;1.63;;;1.53;;
2544;SDS011;36212;48.838;9.142;2022-07-05T10:45:59;3.30;;;1.33;;
2544;SDS011;36212;48.838;9.142;2022-07-05T10:48:33;1.60;;;1.50;;
2544;SDS011;36212;48.838;9.142;2022-07-05T10:54:00;2.20;;;1.30;;
2544;SDS011;36212;48.838;9.142;2022-07-05T10:56:33;1.40;;;1.30;;
2544;SDS011;36212;48.838;9.142;2022-07-05T10:59:08;1.33;;;1.20;;
2544;SDS011;36212;48.838;9.142;2022-07-05T11:10:11;1.63;;;1.53;;
2544;SDS011;36212;48.838;9.142;2022-07-05T11:12:45;4.00;;;1.57;;
2544;SDS011;36212;48.838;9.142;2022-07-05T11:15:17;1.50;;;1.40;;
2544;SDS011;36212;48.838;9.142;2022-07-05T11:17:50;2.27;;;1.53;;
2544;SDS011;36212;48.838;9.142;2022-07-05T11:20:46;2.53;;;1.30;;
2544;SDS011;36212;48.838;9.142;2022-07-05T11:23:25;2.20;;;1.40;;
2544;SDS011;36212;48.838;9.142;2022-07-05T11:25:59;1.50;;;1.40;;
2544;SDS011;36212;48.838;9.142;2022-07-05T11:28:41;1.40;;;1.30;;
2544;SDS011;36212;48.838;9.142;2022-07-05T11:34:17;2.57;;;1.57;;
2544;SDS011;36212;48.838;9.142;2022-07-05T11:40:49;1.80;;;1.47;;
2544;SDS011;36212;48.838;9.142;2022-07-05T11:43:41;2.03;;;1.17;;
2544;SDS011;36212;48.838;9.142;2022-07-05T11:46:25;1.60;;;1.43;;
2544;SDS011;36212;48.838;9.142;2022-07-05T11:49:21;1.47;;;1.30;;
2544;SDS011;36212;48.838;9.142;2022-07-05T11:52:03;1.43;;;1.33;;
2544;SDS011;36212;48.838;9.142;2022-07-05T11:54:36;1.30;;;1.20;;
2544;SDS011;36212;48.838;9.142;2022-07-05T11:57:09;2.50;;;1.40;;
2544;SDS011;36212;48.838;9.142;2022-07-05T11:59:42;1.60;;;1.50;;
2544;SDS011;36212;48.838;9.142;2022-07-05T12:02:14;1.93;;;1.30;;
2544;SDS011;36212;48.838;9.142;2022-07-05T12:04:48;1.73;;;1.30;;
2544;SDS011;36212;48.838;9.142;2022-07-05T12:07:28;1.63;;;1.30;;
2544;SDS011;36212;48.838;9.142;2022-07-05T12:10:03;2.80;;;1.37;;
2544;SDS011;36212;48.838;9.142;2022-07-05T12:13:49;1.93;;;1.50;;
2544;SDS011;36212;48.838;9.142;2022-07-05T12:16:22;1.83;;;1.53;;
2544;SDS011;36212;48.838;9.142;2022-07-05T12:18:57;2.23;;;1.40;;
2544;SDS011;36212;48.838;9.142;2022-07-05T12:21:35;1.60;;;1.50;;
2544;SDS011;36212;48.838;9.142;2022-07-05T12:24:07;1.50;;;1.40;;
2544;SDS011;36212;48.838;9.142;2022-07-05T12:26:44;2.00;;;1.60;;
2544;SDS011;36212;48.838;9.142;2022-07-05T12:29:16;2.20;;;1.60;;
2544;SDS011;36212;48.838;9.142;2022-07-05T12:32:00;1.50;;;1.40;;
2544;SDS011;36212;48.838;9.142;2022-07-05T12:34:35;2.30;;;1.57;;
2544;SDS011;36212;48.838;9.142;2022-07-05T12:37:07;5.47;;;1.70;;
2544;SDS011;36212;48.838;9.142;2022-07-05T12:39:39;3.00;;;1.60;;
2544;SDS011;36212;48.838;9.142;2022-07-05T12:42:11;2.80;;;1.47;;
2544;SDS011;36212;48.838;9.142;2022-07-05T12:45:16;2.43;;;1.80;;
2544;SDS011;36212;48.838;9.142;2022-07-05T12:47:54;1.60;;;1.50;;
2544;SDS011;36212;48.838;9.142;2022-07-05T12:50:37;1.80;;;1.43;;
2544;SDS011;36212;48.838;9.142;2022-07-05T12:53:49;1.87;;;1.33;;
2544;SDS011;36212;48.838;9.142;2022-07-05T12:57:00;4.20;;;1.97;;
2544;SDS011;36212;48.838;9.142;2022-07-05T13:00:14;3.03;;;1.63;;
2544;SDS011;36212;48.838;9.142;2022-07-05T13:02:48;1.90;;;1.40;;
2544;SDS011;36212;48.838;9.142;2022-07-05T13:05:24;1.90;;;1.30;;
2544;SDS011;36212;48.838;9.142;2022-07-05T13:07:57;1.83;;;1.50;;
2544;SDS011;36212;48.838;9.142;2022-07-05T13:10:29;3.43;;;1.40;;
2544;SDS011;36212;48.838;9.142;2022-07-05T13:13:18;1.50;;;1.40;;
2544;SDS011;36212;48.838;9.142;2022-07-05T13:15:51;2.17;;;2.07;;
2544;SDS011;36212;48.838;9.142;2022-07-05T13:18:25;1.53;;;1.43;;
2544;SDS011;36212;48.838;9.142;2022-07-05T13:20:57;36.00;;;7.30;;
2544;SDS011;36212;48.838;9.142;2022-07-05T13:23:29;2.13;;;1.40;;
2544;SDS011;36212;48.838;9.142;2022-07-05T13:26:02;1.50;;;1.40;;
2544;SDS011;36212;48.838;9.142;2022-07-05T13:28:34;2.23;;;1.70;;
2544;SDS011;36212;48.838;9.142;2022-07-05T13:31:06;2.50;;;1.40;;
2544;SDS011;36212;48.838;9.142;2022-07-05T13:33:41;1.40;;;1.30;;
2544;SDS011;36212;48.838;9.142;2022-07-05T13:36:15;1.83;;;1.27;;
2544;SDS011;36212;48.838;9.142;2022-07-05T13:38:47;1.60;;;1.50;;
2544;SDS011;36212;48.838;9.142;2022-07-05T13:41:20;2.80;;;1.40;;
2544;SDS011;36212;48.838;9.142;2022-07-05T13:43:52;2.20;;;1.30;;
2544;SDS011;36212;48.838;9.142;2022-07-05T13:46:24;1.30;;;1.20;;
2544;SDS011;36212;48.838;9.142;2022-07-05T13:48:57;6.10;;;1.60;;
2544;SDS011;36212;48.838;9.142;2022-07-05T13:51:30;2.10;;;1.40;;
2544;SDS011;36212;48.838;9.142;2022-07-05T13:54:02;1.80;;;1.50;;
2544;SDS011;36212;48.838;9.142;2022-07-05T13:56:34;1.40;;;1.30;;
2544;SDS011;36212;48.838;9.142;2022-07-05T13:59:10;2.07;;;1.73;;
2544;SDS011;36212;48.838;9.142;2022-07-05T14:01:42;1.97;;;1.80;;
2544;SDS011;36212;48.838;9.142;2022-07-05T14:04:14;2.03;;;1.50;;
2544;SDS011;36212;48.838;9.142;2022-07-05T14:06:46;1.40;;;1.30;;
2544;SDS011;36212;48.838;9.142;2022-07-05T14:09:20;1.40;;;1.30;;
2544;SDS011;36212;48.838;9.142;2022-07-05T14:11:59;1.40;;;1.30;;
2544;SDS011;36212;48.838;9.142;2022-07-05T14:14:31;1.50;;;1.40;;
2544;SDS011;36212;48.838;9.142;2022-07-05T14:17:11;1.50;;;1.33;;
2544;SDS011;36212;48.838;9.142;2022-07-05T14:19:43;1.43;;;1.27;;
2544;SDS011;36212;48.838;9.142;2022-07-05T14:22:15;2.30;;;1.43;;
2544;SDS011;36212;48.838;9.142;2022-07-05T14:24:47;9.90;;;3.03;;
2544;SDS011;36212;48.838;9.142;2022-07-05T14:27:20;1.60;;;1.50;;
2544;SDS011;36212;48.838;9.142;2022-07-05T14:29:58;3.20;;;1.60;;
2544;SDS011;36212;48.838;9.142;2022-07-05T14:32:34;2.90;;;1.50;;
2544;SDS011;36212;48.838;9.142;2022-07-05T14:35:07;5.93;;;2.40;;
2544;SDS011;36212;48.838;9.142;2022-07-05T14:37:39;5.17;;;1.80;;
2544;SDS011;36212;48.838;9.142;2022-07-05T14:40:11;2.13;;;1.93;;
2544;SDS011;36212;48.838;9.142;2022-07-05T14:42:44;2.00;;;1.80;;
2544;SDS011;36212;48.838;9.142;2022-07-05T14:45:16;1.97;;;1.77;;
2544;SDS011;36212;48.838;9.142;2022-07-05T14:47:49;1.40;;;1.30;;
2544;SDS011;36212;48.838;9.142;2022-07-05T14:50:22;1.43;;;1.33;;
2544;SDS011;36212;48.838;9.142;2022-07-05T14:52:55;1.87;;;1.33;;
2544;SDS011;36212;48.838;9.142;2022-07-05T14:55:27;2.40;;;1.47;;
2544;SDS011;36212;48.838;9.142;2022-07-05T14:58:01;2.13;;;1.40;;
2544;SDS011;36212;48.838;9.142;2022-07-05T15:00:34;1.80;;;1.70;;
2544;SDS011;36212;48.838;9.142;2022-07-05T15:03:09;1.60;;;1.50;;
2544;SDS011;36212;48.838;9.142;2022-07-05T15:05:42;1.83;;;1.73;;
2544;SDS011;36212;48.838;9.142;2022-07-05T15:08:14;2.70;;;1.67;;
2544;SDS011;36212;48.838;9.142;2022-07-05T15:10:47;2.00;;;1.63;;
2544;SDS011;36212;48.838;9.142;2022-07-05T15:13:21;1.40;;;1.30;;
2544;SDS011;36212;48.838;9.142;2022-07-05T15:20:08;1.70;;;1.60;;
2544;SDS011;36212;48.838;9.142;2022-07-05T15:22:41;2.93;;;1.63;;
2544;SDS011;36212;48.838;9.142;2022-07-05T15:25:13;1.60;;;1.50;;
2544;SDS011;36212;48.838;9.142;2022-07-05T15:27:46;2.73;;;1.60;;
2544;SDS011;36212;48.838;9.142;2022-07-05T15:30:18;2.73;;;1.60;;
2544;SDS011;36212;48.838;9.142;2022-07-05T15:32:54;1.50;;;1.40;;
2544;SDS011;36212;48.838;9.142;2022-07-05T15:35:32;1.67;;;1.40;;
2544;SDS011;36212;48.838;9.142;2022-07-05T15:38:04;2.70;;;1.50;;
2544;SDS011;36212;48.838;9.142;2022-07-05T15:40:36;1.40;;;1.30;;
2544;SDS011;36212;48.838;9.142;2022-07-05T15:43:09;2.60;;;1.43;;
2544;SDS011;36212;48.838;9.142;2022-07-05T15:45:41;1.43;;;1.33;;
2544;SDS011;36212;48.838;9.142;2022-07-05T15:48:13;2.23;;;1.80;;
2544;SDS011;36212;48.838;9.142;2022-07-05T15:50:46;1.70;;;1.60;;
2544;SDS011;36212;48.838;9.142;2022-07-05T15:53:18;2.13;;;1.63;;
2544;SDS011;36212;48.838;9.142;2022-07-05T15:55:53;2.00;;;1.87;;
2544;SDS011;36212;48.838;9.142;2022-07-05T15:58:32;2.13;;;1.50;;
2544;SDS011;36212;48.838;9.142;2022-07-05T16:01:05;3.60;;;1.80;;
2544;SDS011;36212;48.838;9.142;2022-07-05T16:03:49;2.10;;;2.00;;
2544;SDS011;36212;48.838;9.142;2022-07-05T16:06:21;1.50;;;1.40;;
2544;SDS011;36212;48.838;9.142;2022-07-05T16:08:53;1.70;;;1.60;;
2544;SDS011;36212;48.838;9.142;2022-07-05T16:11:26;1.37;;;1.27;;
2544;SDS011;36212;48.838;9.142;2022-07-05T16:13:58;1.60;;;1.50;;
2544;SDS011;36212;48.838;9.142;2022-07-05T16:16:31;1.93;;;1.60;;
2544;SDS011;36212;48.838;9.142;2022-07-05T16:19:04;1.63;;;1.47;;
2544;SDS011;36212;48.838;9.142;2022-07-05T16:21:41;1.30;;;1.20;;
2544;SDS011;36212;48.838;9.142;2022-07-05T16:24:19;1.83;;;1.67;;
2544;SDS011;36212;48.838;9.142;2022-07-05T16:26:53;5.23;;;1.57;;
2544;SDS011;36212;48.838;9.142;2022-07-05T16:29:30;1.57;;;1.47;;
2544;SDS011;36212;48.838;9.142;2022-07-05T16:32:03;1.67;;;1.57;;
2544;SDS011;36212;48.838;9.142;2022-07-05T16:34:36;1.90;;;1.70;;
2544;SDS011;36212;48.838;9.142;2022-07-05T16:37:08;4.30;;;1.40;;
2544;SDS011;36212;48.838;9.142;2022-07-05T16:39:41;1.87;;;1.77;;
2544;SDS011;36212;48.838;9.142;2022-07-05T16:42:14;3.93;;;1.70;;
2544;SDS011;36212;48.838;9.142;2022-07-05T16:44:48;3.07;;;1.63;;
2544;SDS011;36212;48.838;9.142;2022-07-05T16:47:26;1.53;;;1.43;;
2544;SDS011;36212;48.838;9.142;2022-07-05T16:49:58;1.30;;;1.20;;
2544;SDS011;36212;48.838;9.142;2022-07-05T16:52:30;2.23;;;2.03;;
2544;SDS011;36212;48.838;9.142;2022-07-05T16:55:03;2.50;;;1.50;;
2544;SDS011;36212;48.838;9.142;2022-07-05T16:57:37;1.83;;;1.40;;
2544;SDS011;36212;48.838;9.142;2022-07-05T17:00:09;2.80;;;1.87;;
2544;SDS011;36212;48.838;9.142;2022-07-05T17:02:44;1.50;;;1.40;;
2544;SDS011;36212;48.838;9.142;2022-07-05T17:05:17;2.33;;;1.80;;
2544;SDS011;36212;48.838;9.142;2022-07-05T17:07:50;1.90;;;1.70;;
2544;SDS011;36212;48.838;9.142;2022-07-05T17:10:22;2.17;;;1.97;;